Latest Weather Observations for Port Augusta

IDS60801

Issued at 10:01 am CST Sunday 1 May 2016 (issued every 30 minutes, with the page automatically refreshed every 10 minutes)

About weather observations | Map of weather stations | Latest weather observations for SA | Other Formats
Station Details ID: 018201 Name: PORT AUGUSTA AERO Lat: -32.51 Lon: 137.72 Height: 13.97 m
Data from the previous 72 hours. | See also: Recent months at Port Augusta
Date/Time
CST
Temp
°C
App
Temp
°C
Dew
Point
Rel
Hum
%
Delta-T
°C
Wind Press
QNH
hPa
Press
MSL
hPa
Rain
since 9 am
mm
Dir
 
Spd
km/h
Gust
km/h
Spd
kts
Gust
kts
01/10:00am 17.9 13.3 6.4 47 5.7 SSW 20 32 11 17 1019.3 1019.3 0.0
01/09:30am 17.3 12.2 6.2 48 5.4 SSW 22 32 12 17 1019.1 1019.1 0.0
01/09:00am 16.9 12.4 7.0 52 4.9 S 20 28 11 15 1018.6 1018.5 0.0
01/08:30am 15.4 11.8 8.2 62 3.6 SSW 17 22 9 12 1018.5 1018.4 0.0
01/08:00am 15.0 11.8 8.5 65 3.3 S 15 20 8 11 1018.3 1018.2 0.0
01/07:30am 12.3 10.1 7.8 74 2.2 S 9 13 5 7 1018.1 1018.0 0.0
01/07:00am 12.5 11.0 8.4 76 2.0 S 6 9 3 5 1018.1 1018.0 0.0
01/06:30am 12.0 10.4 8.1 77 1.9 ESE 6 7 3 4 1018.1 1018.0 0.0
01/06:00am 11.7 9.5 7.8 77 1.9 ESE 9 11 5 6 1018.1 1018.0 0.0
01/05:30am 11.2 10.2 7.3 77 1.9 SE 2 7 1 4 1017.8 1017.7 0.0
01/05:00am 10.9 8.5 6.8 76 1.9 NE 9 11 5 6 1017.8 1017.7 0.0
01/04:30am 13.4 10.5 8.0 70 2.7 WNW 13 20 7 11 1017.4 1017.3 0.0
01/04:00am 12.1 8.6 7.4 73 2.3 WNW 15 15 8 8 1017.2 1017.1 0.0
01/03:30am 11.2 8.7 6.5 73 2.2 NNW 9 13 5 7 1016.8 1016.7 0.0
01/03:00am 12.9 10.2 7.4 69 2.7 WNW 11 13 6 7 1016.6 1016.5 0.0
01/02:30am 13.0 10.6 6.8 66 3.0 W 9 11 5 6 1016.4 1016.3 0.0
01/02:00am 14.0 11.7 7.3 64 3.3 WSW 9 13 5 7 1016.2 1016.1 0.0
01/01:30am 15.2 11.8 7.7 61 3.7 WSW 15 20 8 11 1016.0 1015.9 0.0
01/01:00am 15.6 13.6 7.1 57 4.2 WSW 7 13 4 7 1015.6 1015.5 0.0
01/12:30am 16.2 14.5 7.4 56 4.4 WNW 6 7 3 4 1015.2 1015.1 0.0
01/12:00am 16.9 14.6 7.5 54 4.7 W 9 13 5 7 1014.8 1014.7 0.0
 
Date/Time
CST
Temp
°C
App
Temp
°C
Dew
Point
Rel
Hum
%
Delta-T
°C
Wind Press
QNH
hPa
Press
MSL
hPa
Rain
since 9 am
mm
Dir
 
Spd
km/h
Gust
km/h
Spd
kts
Gust
kts
30/11:30pm 17.6 14.8 7.1 50 5.2 WSW 11 20 6 11 1014.0 1013.9 0.0
30/11:00pm 18.0 13.2 7.4 50 5.3 W 22 30 12 16 1013.4 1013.3 0.0
30/10:30pm 18.2 13.8 7.6 50 5.4 WNW 20 33 11 18 1013.2 1013.1 0.0
30/10:00pm 18.6 12.1 8.0 50 5.4 WSW 32 44 17 24 1013.0 1012.9 0.0
30/09:30pm 19.1 11.3 8.4 50 5.5 WSW 39 54 21 29 1012.6 1012.5 0.0
30/09:27pm 19.1 11.4 8.7 51 5.4 WSW 39 54 21 29 1012.6 1012.5 0.0
30/09:00pm 20.1 11.7 8.8 48 5.9 SW 43 59 23 32 1012.1 1012.0 0.0
30/08:49pm 20.7 12.5 8.4 45 6.4 SW 41 63 22 34 1011.7 1011.6 0.0
30/08:37pm 21.2 11.6 7.8 42 7.0 SW 48 67 26 36 1011.3 1011.2 0.0
30/08:36pm 21.2 11.6 7.8 42 7.0 SW 48 67 26 36 1011.2 1011.1 0.0
30/08:33pm 21.5 11.8 7.3 40 7.3 SW 48 67 26 36 1011.1 1011.0 0.0
30/08:30pm 21.7 12.8 6.8 38 7.6 WSW 43 61 23 33 1011.1 1011.0 0.0
30/08:24pm 23.9 17.6 5.8 31 9.2 W 28 59 15 32 1010.7 1010.6 0.0
30/08:00pm 25.6 19.9 6.8 30 9.8 WNW 26 35 14 19 1009.6 1009.5 0.0
30/07:30pm 26.2 19.3 6.3 28 10.4 NW 32 41 17 22 1009.0 1008.9 0.0
30/07:00pm 26.1 19.6 6.7 29 10.2 WNW 30 39 16 21 1008.6 1008.5 0.0
30/06:30pm 26.8 21.2 10.1 35 9.3 NW 30 39 16 21 1008.1 1008.0 0.0
30/06:00pm 27.4 21.3 9.7 33 9.9 WNW 32 46 17 25 1007.9 1007.8 0.0
30/05:30pm 28.2 22.0 9.5 31 10.4 NNW 32 37 17 20 1007.3 1007.3 0.0
30/05:00pm 28.8 22.3 9.0 29 10.9 NNW 33 46 18 25 1007.3 1007.3 0.0
30/04:30pm 29.1 22.1 9.8 30 10.9 NNW 37 46 20 25 1007.2 1007.2 0.0
30/04:00pm 28.5 21.2 10.2 32 10.3 NW 39 50 21 27 1007.9 1007.8 0.0
30/03:51pm 28.6 21.1 10.8 33 10.1 NW 41 59 22 32 1008.1 1008.0 0.0
30/03:30pm 28.4 21.6 10.6 33 10.1 NNW 37 52 20 28 1008.4 1008.3 0.0
30/03:00pm 29.0 21.2 11.1 33 10.3 NNW 43 56 23 30 1008.5 1008.4 0.0
30/02:32pm 29.5 23.2 11.1 32 10.6 NNW 35 54 19 29 1008.6 1008.5 0.0
30/02:30pm 29.4 23.1 11.0 32 10.6 NNW 35 48 19 26 1008.6 1008.5 0.0
30/02:00pm 28.1 21.6 10.3 33 10.0 NNW 35 57 19 31 1009.2 1009.1 0.0
30/01:30pm 29.1 22.6 10.3 31 10.7 NNW 35 59 19 32 1009.5 1009.4 0.0
30/01:29pm 29.4 23.3 10.5 31 10.7 NNW 33 59 18 32 1009.5 1009.4 0.0
30/01:00pm 28.3 21.6 9.6 31 10.4 NNW 35 46 19 25 1010.3 1010.2 0.0
30/12:30pm 26.9 20.7 9.3 33 9.7 NNW 32 43 17 23 1011.1 1011.0 0.0
30/12:00pm 26.9 22.2 9.3 33 9.7 N 24 32 13 17 1011.7 1011.6 0.0
30/11:30am 26.4 22.0 8.8 33 9.6 N 22 35 12 19 1012.6 1012.5 0.0
30/11:00am 25.0 21.8 11.9 44 7.5 N 20 28 11 15 1013.3 1013.2 0.0
30/10:30am 23.6 20.6 12.6 50 6.3 N 20 26 11 14 1013.9 1013.8 0.0
30/10:00am 23.3 21.3 12.6 51 6.1 NNW 15 24 8 13 1014.1 1014.0 0.0
30/09:30am 22.0 19.6 12.5 54 5.4 N 17 20 9 11 1014.3 1014.2 0.0
30/09:00am 20.5 18.1 12.7 61 4.4 N 17 24 9 13 1014.5 1014.4 -
30/08:30am 18.1 16.5 11.7 66 3.5 NNW 11 15 6 8 1014.7 1014.6 -
30/08:00am 16.1 14.6 10.6 70 2.9 W 9 11 5 6 1014.5 1014.4 -
30/07:30am 13.2 11.3 8.9 75 2.2 WSW 9 11 5 6 1014.6 1014.5 -
30/07:00am 11.0 8.2 7.1 77 1.9 WSW 11 11 6 6 1014.4 1014.3 -
30/06:30am 10.7 8.2 6.6 76 1.9 WSW 9 11 5 6 1014.2 1014.1 -
30/06:00am 10.8 8.7 6.6 75 2.0 W 7 9 4 5 1013.9 1013.8 -
30/05:30am 11.1 10.3 6.3 72 2.2 CALM 0 0 0 0 1013.9 1013.8 -
30/05:00am 11.2 10.5 6.9 75 2.0 CALM 0 2 0 1 1013.6 1013.5 -
30/04:30am 11.2 10.4 6.3 72 2.3 CALM 0 0 0 0 1013.4 1013.3 -
30/04:00am 12.3 11.7 7.2 71 2.5 CALM 0 0 0 0 1013.3 1013.2 -
30/03:30am 11.9 9.8 6.8 71 2.4 WNW 7 11 4 6 1013.4 1013.3 -
30/03:00am 12.7 10.8 7.6 71 2.5 W 7 7 4 4 1013.5 1013.4 0.0
30/02:30am 13.3 11.6 7.5 68 2.8 WSW 6 7 3 4 1013.5 1013.4 -
30/02:00am 14.4 12.8 8.6 68 2.9 NW 7 7 4 4 1013.6 1013.5 -
30/01:30am 14.0 11.9 8.2 68 2.9 NNW 9 9 5 5 1013.7 1013.6 -
30/01:00am 15.4 15.2 8.9 65 3.3 CALM 0 0 0 0 1013.5 1013.4 -
30/12:30am 14.9 13.1 7.9 63 3.5 WNW 7 9 4 5 1013.6 1013.5 -
30/12:00am 16.3 16.0 8.5 60 4.0 CALM 0 0 0 0 1013.9 1013.8 -
 
Date/Time
CST
Temp
°C
App
Temp
°C
Dew
Point
Rel
Hum
%
Delta-T
°C
Wind Press
QNH
hPa
Press
MSL
hPa
Rain
since 9 am
mm
Dir
 
Spd
km/h
Gust
km/h
Spd
kts
Gust
kts
29/11:30pm 16.6 14.2 8.6 59 4.1 W 11 11 6 6 1014.0 1013.9 -
29/11:00pm 18.2 16.7 9.0 55 4.8 WSW 7 9 4 5 1014.3 1014.2 -
29/10:30pm 17.7 16.4 9.1 57 4.5 W 6 9 3 5 1014.5 1014.4 -
29/10:00pm 19.0 17.1 9.2 53 5.2 SW 9 13 5 7 1014.3 1014.2 -
29/09:30pm 17.8 16.6 10.2 61 4.0 NW 7 9 4 5 1013.9 1013.8 -
29/09:00pm 19.7 18.4 11.2 58 4.7 NW 9 13 5 7 1013.5 1013.4 0.0
29/08:30pm 20.2 18.4 10.9 55 5.1 NW 11 13 6 7 1013.2 1013.1 -
29/08:00pm 20.8 18.5 10.3 51 5.7 WNW 13 15 7 8 1012.9 1012.8 -
29/07:30pm 22.0 18.6 9.2 44 6.8 NW 17 19 9 10 1012.6 1012.5 -
29/07:00pm 22.4 19.4 9.2 43 7.1 NW 15 19 8 10 1012.0 1011.9 -
29/06:30pm 21.9 19.2 8.8 43 7.0 NW 13 17 7 9 1011.7 1011.6 -
29/06:00pm 23.9 21.3 9.5 40 7.8 WNW 13 19 7 10 1011.6 1011.5 -
29/05:30pm 26.1 23.4 10.3 37 8.8 WNW 15 19 8 10 1011.5 1011.4 -
29/05:00pm 26.8 25.0 10.9 37 9.0 WNW 11 17 6 9 1011.2 1011.1 -
29/04:30pm 26.7 24.0 11.6 39 8.6 W 17 22 9 12 1011.2 1011.1 -
29/04:00pm 26.9 23.7 11.8 39 8.7 NW 20 28 11 15 1011.3 1011.2 -
29/03:30pm 27.9 25.1 12.7 39 8.9 WNW 19 24 10 13 1011.3 1011.2 -
29/03:00pm 27.1 23.8 12.7 41 8.4 WNW 22 32 12 17 1011.1 1011.0 -
29/02:30pm 26.7 23.7 12.7 42 8.2 NW 20 28 11 15 1011.1 1011.0 -
29/02:00pm 26.5 23.1 12.5 41 8.1 NW 22 28 12 15 1011.2 1011.1 -
29/01:30pm 26.8 22.6 12.5 41 8.3 NW 26 39 14 21 1011.2 1011.1 -
29/01:00pm 26.8 22.4 12.8 42 8.2 NW 28 39 15 21 1011.7 1011.6 -
29/12:30pm 27.1 23.1 13.1 42 8.2 NW 26 35 14 19 1012.0 1011.9 -
29/12:00pm 26.0 20.8 12.8 44 7.7 NNW 32 39 17 21 1012.3 1012.2 -
29/11:30am 25.3 21.1 12.5 45 7.4 NW 26 44 14 24 1012.7 1012.6 0.0
29/11:00am 24.8 21.2 13.0 47 6.8 NNW 24 32 13 17 1012.9 1012.8 0.0
29/10:30am 24.5 21.0 13.4 50 6.5 NNW 24 30 13 16 1013.2 1013.1 0.0
29/10:00am 22.2 20.2 13.8 59 4.9 N 17 20 9 11 1013.3 1013.2 0.0
29/09:30am 20.7 20.8 14.4 67 3.7 NNW 7 11 4 6 1013.5 1013.4 0.0
29/09:00am 19.5 19.3 14.7 74 2.8 NNW 9 11 5 6 1013.6 1013.5 0.8
29/08:30am 18.4 17.5 14.9 80 2.0 N 13 15 7 8 1013.5 1013.4 0.8
29/08:00am 17.9 18.1 14.8 82 1.8 ENE 7 9 4 5 1013.4 1013.3 0.8
29/07:30am 17.6 15.2 14.5 82 1.8 ENE 20 26 11 14 1013.0 1012.9 0.8
29/07:00am 17.7 17.0 14.4 81 1.9 SSE 11 13 6 7 1013.7 1013.6 0.8
29/06:30am 19.3 18.3 13.5 69 3.3 SW 11 13 6 7 1013.9 1013.8 0.2
29/06:00am 19.5 17.7 13.2 67 3.6 WSW 15 19 8 10 1013.7 1013.6 0.2
29/05:30am 19.1 19.2 14.4 74 2.7 W 7 11 4 6 1013.0 1012.9 0.2
29/05:00am 19.1 18.1 12.4 65 3.7 NNE 9 15 5 8 1012.6 1012.5 0.2
29/04:30am 18.8 18.2 13.4 71 3.1 NNE 9 13 5 7 1012.6 1012.5 0.2
29/04:00am 19.1 18.6 13.7 71 3.1 SSW 9 9 5 5 1012.7 1012.6 0.2
29/03:30am 20.1 18.4 11.3 57 4.8 ESE 11 13 6 7 1012.9 1012.8 0.0
29/03:00am 21.0 18.9 9.6 48 6.1 E 11 13 6 7 1012.8 1012.7 0.0
29/02:30am 20.8 18.4 10.0 50 5.8 NE 13 17 7 9 1013.0 1012.9 0.0
29/02:00am 21.5 17.9 5.0 34 8.1 NE 13 15 7 8 1012.8 1012.7 0.0
29/01:30am 22.6 21.4 6.4 35 8.3 WSW 2 7 1 4 1012.9 1012.8 0.0
29/01:00am 23.2 20.1 5.6 32 8.9 WSW 11 15 6 8 1012.8 1012.7 0.0
29/12:30am 24.1 20.6 3.4 26 10.1 SW 11 17 6 9 1012.7 1012.6 0.0
29/12:00am 22.6 18.5 4.2 30 9.0 WSW 15 19 8 10 1012.7 1012.6 0.0
 
Date/Time
CST
Temp
°C
App
Temp
°C
Dew
Point
Rel
Hum
%
Delta-T
°C
Wind Press
QNH
hPa
Press
MSL
hPa
Rain
since 9 am
mm
Dir
 
Spd
km/h
Gust
km/h
Spd
kts
Gust
kts
28/11:30pm 22.7 19.2 3.3 28 9.3 W 11 17 6 9 1012.7 1012.6 0.0
28/11:00pm 23.9 20.3 2.7 25 10.2 NW 11 13 6 7 1012.8 1012.7 0.0
28/10:30pm 23.5 19.9 2.9 26 9.9 WNW 11 13 6 7 1012.6 1012.5 0.0
28/10:00pm 24.2 19.8 2.9 25 10.3 N 15 17 8 9 1012.4 1012.3 0.0
28/09:30pm 23.4 19.4 2.8 26 9.9 N 13 17 7 9 1012.4 1012.3 0.0
28/09:00pm 23.1 19.1 2.6 26 9.8 N 13 15 7 8 1012.1 1012.0 0.0
28/08:30pm 24.3 20.2 2.5 24 10.5 N 13 15 7 8 1012.4 1012.3 0.0
28/08:00pm 24.8 20.8 2.9 24 10.6 NNE 13 17 7 9 1012.5 1012.4 0.0
28/07:30pm 25.8 21.4 2.5 22 11.3 NNE 15 19 8 10 1012.5 1012.4 0.0
28/07:00pm 26.0 21.2 2.7 22 11.4 NNE 17 20 9 11 1012.6 1012.5 0.0
28/06:30pm 26.3 21.8 2.3 21 11.6 N 15 19 8 10 1012.6 1012.5 0.0
28/06:00pm 27.3 21.9 2.4 20 12.2 N 20 28 11 15 1012.5 1012.4 0.0
28/05:30pm 27.5 21.8 2.6 20 12.2 N 22 32 12 17 1012.5 1012.4 0.0
28/05:00pm 28.1 21.5 2.3 19 12.7 N 26 37 14 20 1012.4 1012.3 0.0
28/04:30pm 28.4 20.8 2.6 19 12.8 N 32 43 17 23 1012.6 1012.5 0.0
28/04:00pm 28.9 21.2 2.2 18 13.1 N 32 41 17 22 1012.6 1012.5 0.0
28/03:30pm 29.5 22.1 1.9 17 13.6 N 30 41 16 22 1012.7 1012.6 0.0
28/03:00pm 29.6 21.8 2.0 17 13.6 N 32 39 17 21 1012.9 1012.8 0.0
28/02:30pm 29.4 21.8 2.6 18 13.3 N 32 39 17 21 1012.8 1012.7 0.0
28/02:00pm 29.1 21.8 2.4 18 13.2 N 30 43 16 23 1012.9 1012.8 0.0
28/01:30pm 29.9 22.7 3.0 18 13.5 N 30 39 16 21 1013.3 1013.2 0.0
28/01:00pm 29.2 22.0 3.2 19 13.1 N 30 43 16 23 1013.7 1013.6 0.0
28/12:30pm 28.3 23.9 7.5 27 11.2 N 20 30 11 16 1014.6 1014.5 0.0
28/12:00pm 27.5 24.3 8.4 30 10.4 N 15 24 8 13 1015.4 1015.3 0.0
28/11:30am 25.1 22.6 12.3 45 7.3 NNW 17 22 9 12 1016.3 1016.2 0.0
28/11:00am 25.1 24.0 13.0 47 7.0 NE 11 15 6 8 1016.4 1016.3 0.0
28/10:30am 22.0 21.2 13.9 60 4.7 SE 11 15 6 8 1016.7 1016.6 0.0

Other Formats:

Comma delimited format used in spreadsheet applications
http://www.bom.gov.au/fwo/IDS60801/IDS60801.95666.axf

JavaScript Object Notation format (JSON) in row-major order
http://www.bom.gov.au/fwo/IDS60801/IDS60801.95666.json